sensor_id;sensor_type;location;lat;lon;timestamp;P1;durP1;ratioP1;P2;durP2;ratioP2
37785;SDS011;23625;48.784;9.336;2023-02-22T00:00:12;11.60;;;3.72;;
37785;SDS011;23625;48.784;9.336;2023-02-22T00:02:50;9.27;;;3.50;;
37785;SDS011;23625;48.784;9.336;2023-02-22T00:05:18;8.38;;;3.83;;
37785;SDS011;23625;48.784;9.336;2023-02-22T00:07:45;10.52;;;3.50;;
37785;SDS011;23625;48.784;9.336;2023-02-22T00:10:12;9.52;;;3.45;;
37785;SDS011;23625;48.784;9.336;2023-02-22T00:12:41;11.38;;;3.25;;
37785;SDS011;23625;48.784;9.336;2023-02-22T00:15:07;10.98;;;3.92;;
37785;SDS011;23625;48.784;9.336;2023-02-22T00:17:34;15.13;;;4.75;;
37785;SDS011;23625;48.784;9.336;2023-02-22T00:20:00;9.23;;;4.03;;
37785;SDS011;23625;48.784;9.336;2023-02-22T00:22:29;10.75;;;4.13;;
37785;SDS011;23625;48.784;9.336;2023-02-22T00:24:55;10.23;;;3.47;;
37785;SDS011;23625;48.784;9.336;2023-02-22T00:27:21;5.45;;;2.90;;
37785;SDS011;23625;48.784;9.336;2023-02-22T00:29:47;11.07;;;3.63;;
37785;SDS011;23625;48.784;9.336;2023-02-22T00:32:12;13.38;;;3.70;;
37785;SDS011;23625;48.784;9.336;2023-02-22T00:34:39;9.63;;;3.75;;
37785;SDS011;23625;48.784;9.336;2023-02-22T00:37:05;10.77;;;4.25;;
37785;SDS011;23625;48.784;9.336;2023-02-22T00:39:31;9.65;;;3.55;;
37785;SDS011;23625;48.784;9.336;2023-02-22T00:41:57;9.30;;;3.58;;
37785;SDS011;23625;48.784;9.336;2023-02-22T00:44:22;12.90;;;3.63;;
37785;SDS011;23625;48.784;9.336;2023-02-22T00:46:48;9.50;;;3.42;;
37785;SDS011;23625;48.784;9.336;2023-02-22T00:49:14;8.63;;;3.55;;
37785;SDS011;23625;48.784;9.336;2023-02-22T00:51:40;9.23;;;3.58;;
37785;SDS011;23625;48.784;9.336;2023-02-22T00:54:06;9.68;;;4.00;;
37785;SDS011;23625;48.784;9.336;2023-02-22T00:56:32;12.63;;;4.93;;
37785;SDS011;23625;48.784;9.336;2023-02-22T00:58:59;19.52;;;5.53;;
37785;SDS011;23625;48.784;9.336;2023-02-22T01:01:27;15.50;;;5.15;;
37785;SDS011;23625;48.784;9.336;2023-02-22T01:03:53;18.42;;;5.97;;
37785;SDS011;23625;48.784;9.336;2023-02-22T01:06:19;14.98;;;6.22;;
37785;SDS011;23625;48.784;9.336;2023-02-22T01:08:45;22.45;;;7.63;;
37785;SDS011;23625;48.784;9.336;2023-02-22T01:11:12;19.00;;;7.43;;
37785;SDS011;23625;48.784;9.336;2023-02-22T01:13:39;18.25;;;6.35;;
37785;SDS011;23625;48.784;9.336;2023-02-22T01:16:05;15.75;;;5.05;;
37785;SDS011;23625;48.784;9.336;2023-02-22T01:18:32;16.25;;;5.82;;
37785;SDS011;23625;48.784;9.336;2023-02-22T01:20:59;16.42;;;6.10;;
37785;SDS011;23625;48.784;9.336;2023-02-22T01:23:25;12.07;;;5.95;;
37785;SDS011;23625;48.784;9.336;2023-02-22T01:25:51;18.67;;;5.97;;
37785;SDS011;23625;48.784;9.336;2023-02-22T01:28:17;12.30;;;5.63;;
37785;SDS011;23625;48.784;9.336;2023-02-22T01:30:42;10.15;;;5.32;;
37785;SDS011;23625;48.784;9.336;2023-02-22T01:33:09;14.20;;;6.07;;
37785;SDS011;23625;48.784;9.336;2023-02-22T01:35:36;14.43;;;6.72;;
37785;SDS011;23625;48.784;9.336;2023-02-22T01:38:05;13.68;;;6.05;;
37785;SDS011;23625;48.784;9.336;2023-02-22T01:40:32;15.98;;;7.35;;
37785;SDS011;23625;48.784;9.336;2023-02-22T01:43:01;14.98;;;5.68;;
37785;SDS011;23625;48.784;9.336;2023-02-22T01:47:55;14.88;;;6.35;;
37785;SDS011;23625;48.784;9.336;2023-02-22T01:50:34;15.13;;;5.90;;
37785;SDS011;23625;48.784;9.336;2023-02-22T01:53:04;12.13;;;5.22;;
37785;SDS011;23625;48.784;9.336;2023-02-22T01:55:33;13.82;;;5.85;;
37785;SDS011;23625;48.784;9.336;2023-02-22T01:58:00;9.52;;;5.03;;
37785;SDS011;23625;48.784;9.336;2023-02-22T02:00:28;14.88;;;5.30;;
37785;SDS011;23625;48.784;9.336;2023-02-22T02:02:55;11.13;;;5.50;;
37785;SDS011;23625;48.784;9.336;2023-02-22T02:05:25;10.57;;;5.22;;
37785;SDS011;23625;48.784;9.336;2023-02-22T02:07:55;11.13;;;5.55;;
37785;SDS011;23625;48.784;9.336;2023-02-22T02:10:22;11.88;;;5.93;;
37785;SDS011;23625;48.784;9.336;2023-02-22T02:12:48;13.40;;;6.07;;
37785;SDS011;23625;48.784;9.336;2023-02-22T02:17:53;8.73;;;5.07;;
37785;SDS011;23625;48.784;9.336;2023-02-22T02:20:31;13.00;;;5.40;;
37785;SDS011;23625;48.784;9.336;2023-02-22T02:28:48;18.05;;;7.18;;
37785;SDS011;23625;48.784;9.336;2023-02-22T02:37:46;17.23;;;7.50;;
37785;SDS011;23625;48.784;9.336;2023-02-22T02:40:19;12.15;;;6.25;;
37785;SDS011;23625;48.784;9.336;2023-02-22T02:42:50;15.90;;;6.90;;
37785;SDS011;23625;48.784;9.336;2023-02-22T02:45:28;13.10;;;6.68;;
37785;SDS011;23625;48.784;9.336;2023-02-22T02:48:00;16.00;;;7.43;;
37785;SDS011;23625;48.784;9.336;2023-02-22T02:50:35;14.43;;;7.25;;
37785;SDS011;23625;48.784;9.336;2023-02-22T02:53:06;19.40;;;7.20;;
37785;SDS011;23625;48.784;9.336;2023-02-22T02:55:33;15.82;;;8.10;;
37785;SDS011;23625;48.784;9.336;2023-02-22T02:58:02;13.05;;;7.55;;
37785;SDS011;23625;48.784;9.336;2023-02-22T03:00:30;14.75;;;7.47;;
37785;SDS011;23625;48.784;9.336;2023-02-22T03:03:09;20.58;;;8.43;;
37785;SDS011;23625;48.784;9.336;2023-02-22T03:08:52;18.95;;;7.82;;
37785;SDS011;23625;48.784;9.336;2023-02-22T03:11:22;17.95;;;8.05;;
37785;SDS011;23625;48.784;9.336;2023-02-22T03:14:00;13.95;;;7.53;;
37785;SDS011;23625;48.784;9.336;2023-02-22T03:16:45;24.77;;;8.23;;
37785;SDS011;23625;48.784;9.336;2023-02-22T03:24:48;16.55;;;7.90;;
37785;SDS011;23625;48.784;9.336;2023-02-22T03:27:34;23.60;;;8.32;;
37785;SDS011;23625;48.784;9.336;2023-02-22T03:30:08;19.67;;;8.00;;
37785;SDS011;23625;48.784;9.336;2023-02-22T03:32:38;16.67;;;8.32;;
37785;SDS011;23625;48.784;9.336;2023-02-22T03:35:08;24.27;;;9.45;;
37785;SDS011;23625;48.784;9.336;2023-02-22T03:37:38;21.05;;;8.05;;
37785;SDS011;23625;48.784;9.336;2023-02-22T03:40:09;18.27;;;8.63;;
37785;SDS011;23625;48.784;9.336;2023-02-22T03:42:39;15.70;;;7.32;;
37785;SDS011;23625;48.784;9.336;2023-02-22T03:45:13;18.42;;;7.90;;
37785;SDS011;23625;48.784;9.336;2023-02-22T03:47:42;18.23;;;8.20;;
37785;SDS011;23625;48.784;9.336;2023-02-22T03:50:12;23.40;;;10.52;;
37785;SDS011;23625;48.784;9.336;2023-02-22T03:52:42;20.65;;;8.00;;
37785;SDS011;23625;48.784;9.336;2023-02-22T03:55:09;18.73;;;7.50;;
37785;SDS011;23625;48.784;9.336;2023-02-22T03:57:38;22.67;;;7.90;;
37785;SDS011;23625;48.784;9.336;2023-02-22T04:00:08;20.45;;;8.10;;
37785;SDS011;23625;48.784;9.336;2023-02-22T04:02:36;14.85;;;7.32;;
37785;SDS011;23625;48.784;9.336;2023-02-22T04:05:01;17.40;;;8.45;;
37785;SDS011;23625;48.784;9.336;2023-02-22T04:07:27;20.58;;;8.07;;
37785;SDS011;23625;48.784;9.336;2023-02-22T04:09:53;22.08;;;8.63;;
37785;SDS011;23625;48.784;9.336;2023-02-22T04:12:18;18.42;;;7.00;;
37785;SDS011;23625;48.784;9.336;2023-02-22T04:14:44;13.70;;;7.50;;
37785;SDS011;23625;48.784;9.336;2023-02-22T04:17:09;20.02;;;8.40;;
37785;SDS011;23625;48.784;9.336;2023-02-22T04:19:35;14.75;;;7.25;;
37785;SDS011;23625;48.784;9.336;2023-02-22T04:22:00;22.52;;;8.07;;
37785;SDS011;23625;48.784;9.336;2023-02-22T04:24:26;15.45;;;8.18;;
37785;SDS011;23625;48.784;9.336;2023-02-22T04:26:51;17.92;;;7.95;;
37785;SDS011;23625;48.784;9.336;2023-02-22T04:29:19;24.35;;;7.32;;
37785;SDS011;23625;48.784;9.336;2023-02-22T04:31:45;16.58;;;6.35;;
37785;SDS011;23625;48.784;9.336;2023-02-22T04:34:10;16.70;;;8.60;;
37785;SDS011;23625;48.784;9.336;2023-02-22T04:36:36;18.00;;;7.72;;
37785;SDS011;23625;48.784;9.336;2023-02-22T04:39:02;14.02;;;6.65;;
37785;SDS011;23625;48.784;9.336;2023-02-22T04:41:29;16.00;;;8.10;;
37785;SDS011;23625;48.784;9.336;2023-02-22T04:43:55;13.20;;;6.90;;
37785;SDS011;23625;48.784;9.336;2023-02-22T04:46:21;18.75;;;7.53;;
37785;SDS011;23625;48.784;9.336;2023-02-22T04:48:47;13.65;;;6.63;;
37785;SDS011;23625;48.784;9.336;2023-02-22T04:51:13;15.88;;;6.60;;
37785;SDS011;23625;48.784;9.336;2023-02-22T04:53:39;24.00;;;7.63;;
37785;SDS011;23625;48.784;9.336;2023-02-22T04:56:05;14.40;;;6.88;;
37785;SDS011;23625;48.784;9.336;2023-02-22T04:58:31;14.40;;;6.30;;
37785;SDS011;23625;48.784;9.336;2023-02-22T05:00:56;13.40;;;6.20;;
37785;SDS011;23625;48.784;9.336;2023-02-22T05:03:22;13.32;;;6.80;;
37785;SDS011;23625;48.784;9.336;2023-02-22T05:05:47;16.63;;;6.47;;
37785;SDS011;23625;48.784;9.336;2023-02-22T05:08:15;17.20;;;6.53;;
37785;SDS011;23625;48.784;9.336;2023-02-22T05:10:40;17.20;;;6.93;;
37785;SDS011;23625;48.784;9.336;2023-02-22T05:13:06;18.55;;;7.15;;
37785;SDS011;23625;48.784;9.336;2023-02-22T05:15:33;13.55;;;6.40;;
37785;SDS011;23625;48.784;9.336;2023-02-22T05:17:58;13.13;;;5.90;;
37785;SDS011;23625;48.784;9.336;2023-02-22T05:20:28;14.38;;;6.63;;
37785;SDS011;23625;48.784;9.336;2023-02-22T05:22:56;14.48;;;6.80;;
37785;SDS011;23625;48.784;9.336;2023-02-22T05:25:23;17.48;;;6.30;;
37785;SDS011;23625;48.784;9.336;2023-02-22T05:27:50;16.67;;;7.07;;
37785;SDS011;23625;48.784;9.336;2023-02-22T05:30:20;14.93;;;6.85;;
37785;SDS011;23625;48.784;9.336;2023-02-22T05:32:48;12.15;;;6.18;;
37785;SDS011;23625;48.784;9.336;2023-02-22T05:35:15;13.30;;;6.25;;
37785;SDS011;23625;48.784;9.336;2023-02-22T05:37:41;15.75;;;7.25;;
37785;SDS011;23625;48.784;9.336;2023-02-22T05:40:07;21.60;;;6.93;;
37785;SDS011;23625;48.784;9.336;2023-02-22T05:42:33;17.63;;;8.32;;
37785;SDS011;23625;48.784;9.336;2023-02-22T05:44:59;15.70;;;7.90;;
37785;SDS011;23625;48.784;9.336;2023-02-22T05:47:25;15.65;;;7.90;;
37785;SDS011;23625;48.784;9.336;2023-02-22T05:49:50;16.55;;;7.28;;
37785;SDS011;23625;48.784;9.336;2023-02-22T05:52:16;16.65;;;7.80;;
37785;SDS011;23625;48.784;9.336;2023-02-22T05:54:42;21.58;;;9.05;;
37785;SDS011;23625;48.784;9.336;2023-02-22T05:57:07;17.67;;;8.50;;
37785;SDS011;23625;48.784;9.336;2023-02-22T05:59:33;25.35;;;8.27;;
37785;SDS011;23625;48.784;9.336;2023-02-22T06:01:58;16.75;;;7.97;;
37785;SDS011;23625;48.784;9.336;2023-02-22T06:04:24;17.88;;;8.27;;
37785;SDS011;23625;48.784;9.336;2023-02-22T06:06:49;16.70;;;8.00;;
37785;SDS011;23625;48.784;9.336;2023-02-22T06:09:15;14.88;;;8.25;;
37785;SDS011;23625;48.784;9.336;2023-02-22T06:11:41;16.20;;;8.55;;
37785;SDS011;23625;48.784;9.336;2023-02-22T06:14:06;19.58;;;7.60;;
37785;SDS011;23625;48.784;9.336;2023-02-22T06:16:32;14.35;;;7.78;;
37785;SDS011;23625;48.784;9.336;2023-02-22T06:18:57;17.85;;;7.85;;
37785;SDS011;23625;48.784;9.336;2023-02-22T06:21:24;15.05;;;6.38;;
37785;SDS011;23625;48.784;9.336;2023-02-22T06:23:49;14.50;;;7.07;;
37785;SDS011;23625;48.784;9.336;2023-02-22T06:26:15;13.88;;;7.68;;
37785;SDS011;23625;48.784;9.336;2023-02-22T06:28:41;15.43;;;6.72;;
37785;SDS011;23625;48.784;9.336;2023-02-22T06:31:07;14.65;;;6.45;;
37785;SDS011;23625;48.784;9.336;2023-02-22T06:33:32;13.10;;;6.95;;
37785;SDS011;23625;48.784;9.336;2023-02-22T06:35:58;14.82;;;6.60;;
37785;SDS011;23625;48.784;9.336;2023-02-22T06:38:24;16.60;;;6.97;;
37785;SDS011;23625;48.784;9.336;2023-02-22T06:40:51;13.10;;;7.32;;
37785;SDS011;23625;48.784;9.336;2023-02-22T06:43:19;14.63;;;6.85;;
37785;SDS011;23625;48.784;9.336;2023-02-22T06:45:45;19.65;;;6.78;;
37785;SDS011;23625;48.784;9.336;2023-02-22T06:48:11;13.07;;;6.70;;
37785;SDS011;23625;48.784;9.336;2023-02-22T06:50:37;16.83;;;7.70;;
37785;SDS011;23625;48.784;9.336;2023-02-22T06:53:02;12.82;;;7.32;;
37785;SDS011;23625;48.784;9.336;2023-02-22T06:55:29;13.43;;;7.35;;
37785;SDS011;23625;48.784;9.336;2023-02-22T06:57:56;12.52;;;7.35;;
37785;SDS011;23625;48.784;9.336;2023-02-22T07:00:22;17.48;;;6.93;;
37785;SDS011;23625;48.784;9.336;2023-02-22T07:02:49;18.10;;;8.00;;
37785;SDS011;23625;48.784;9.336;2023-02-22T07:05:17;18.38;;;8.00;;
37785;SDS011;23625;48.784;9.336;2023-02-22T07:07:44;18.45;;;9.02;;
37785;SDS011;23625;48.784;9.336;2023-02-22T07:12:45;27.40;;;9.77;;
37785;SDS011;23625;48.784;9.336;2023-02-22T07:15:11;23.33;;;9.80;;
37785;SDS011;23625;48.784;9.336;2023-02-22T07:17:37;31.52;;;12.13;;
37785;SDS011;23625;48.784;9.336;2023-02-22T07:20:05;43.22;;;17.90;;
37785;SDS011;23625;48.784;9.336;2023-02-22T07:22:31;33.92;;;14.77;;
37785;SDS011;23625;48.784;9.336;2023-02-22T07:24:57;30.10;;;13.32;;
37785;SDS011;23625;48.784;9.336;2023-02-22T07:27:24;26.48;;;8.98;;
37785;SDS011;23625;48.784;9.336;2023-02-22T07:29:49;16.80;;;8.38;;
37785;SDS011;23625;48.784;9.336;2023-02-22T07:32:15;31.05;;;11.32;;
37785;SDS011;23625;48.784;9.336;2023-02-22T07:34:40;21.95;;;9.25;;
37785;SDS011;23625;48.784;9.336;2023-02-22T07:37:07;19.08;;;8.85;;
37785;SDS011;23625;48.784;9.336;2023-02-22T07:39:33;21.73;;;8.02;;
37785;SDS011;23625;48.784;9.336;2023-02-22T07:41:58;16.48;;;9.07;;
37785;SDS011;23625;48.784;9.336;2023-02-22T07:44:24;17.35;;;8.05;;
37785;SDS011;23625;48.784;9.336;2023-02-22T07:46:50;18.73;;;8.98;;
37785;SDS011;23625;48.784;9.336;2023-02-22T07:49:15;24.90;;;9.95;;
37785;SDS011;23625;48.784;9.336;2023-02-22T07:51:44;18.25;;;9.23;;
37785;SDS011;23625;48.784;9.336;2023-02-22T07:54:10;22.13;;;9.07;;
37785;SDS011;23625;48.784;9.336;2023-02-22T07:56:35;18.80;;;9.23;;
37785;SDS011;23625;48.784;9.336;2023-02-22T07:59:01;20.38;;;9.63;;
37785;SDS011;23625;48.784;9.336;2023-02-22T08:01:26;21.40;;;9.48;;
37785;SDS011;23625;48.784;9.336;2023-02-22T08:03:52;22.92;;;10.00;;
37785;SDS011;23625;48.784;9.336;2023-02-22T08:06:18;16.38;;;9.13;;
37785;SDS011;23625;48.784;9.336;2023-02-22T08:08:45;22.92;;;9.38;;
37785;SDS011;23625;48.784;9.336;2023-02-22T08:11:10;23.25;;;9.27;;
37785;SDS011;23625;48.784;9.336;2023-02-22T08:13:37;17.08;;;8.30;;
37785;SDS011;23625;48.784;9.336;2023-02-22T08:16:03;17.98;;;9.02;;
37785;SDS011;23625;48.784;9.336;2023-02-22T08:18:29;20.75;;;8.57;;
37785;SDS011;23625;48.784;9.336;2023-02-22T08:20:55;17.77;;;9.02;;
37785;SDS011;23625;48.784;9.336;2023-02-22T08:23:21;19.80;;;9.07;;
37785;SDS011;23625;48.784;9.336;2023-02-22T08:25:49;18.30;;;8.00;;
37785;SDS011;23625;48.784;9.336;2023-02-22T08:28:16;15.68;;;9.50;;
37785;SDS011;23625;48.784;9.336;2023-02-22T08:30:44;20.00;;;8.57;;
37785;SDS011;23625;48.784;9.336;2023-02-22T08:33:10;14.85;;;7.63;;
37785;SDS011;23625;48.784;9.336;2023-02-22T08:35:39;17.00;;;8.15;;
37785;SDS011;23625;48.784;9.336;2023-02-22T08:38:05;12.85;;;7.38;;
37785;SDS011;23625;48.784;9.336;2023-02-22T08:40:34;18.85;;;9.32;;
37785;SDS011;23625;48.784;9.336;2023-02-22T08:43:01;19.83;;;9.25;;
37785;SDS011;23625;48.784;9.336;2023-02-22T08:45:28;15.18;;;8.23;;
37785;SDS011;23625;48.784;9.336;2023-02-22T08:47:54;17.40;;;7.93;;
37785;SDS011;23625;48.784;9.336;2023-02-22T08:52:48;18.65;;;9.02;;
37785;SDS011;23625;48.784;9.336;2023-02-22T08:55:20;25.10;;;10.75;;
37785;SDS011;23625;48.784;9.336;2023-02-22T08:57:47;24.90;;;10.50;;
37785;SDS011;23625;48.784;9.336;2023-02-22T09:00:12;23.00;;;11.13;;
37785;SDS011;23625;48.784;9.336;2023-02-22T09:02:39;23.77;;;10.85;;
37785;SDS011;23625;48.784;9.336;2023-02-22T09:05:05;19.50;;;8.98;;
37785;SDS011;23625;48.784;9.336;2023-02-22T09:07:31;16.50;;;8.85;;
37785;SDS011;23625;48.784;9.336;2023-02-22T09:09:57;18.33;;;8.40;;
37785;SDS011;23625;48.784;9.336;2023-02-22T09:12:23;20.00;;;8.48;;
37785;SDS011;23625;48.784;9.336;2023-02-22T09:14:48;17.95;;;9.40;;
37785;SDS011;23625;48.784;9.336;2023-02-22T09:17:14;25.88;;;9.57;;
37785;SDS011;23625;48.784;9.336;2023-02-22T09:19:39;24.83;;;10.57;;
37785;SDS011;23625;48.784;9.336;2023-02-22T09:22:05;22.98;;;9.27;;
37785;SDS011;23625;48.784;9.336;2023-02-22T09:24:30;16.85;;;8.38;;
37785;SDS011;23625;48.784;9.336;2023-02-22T09:26:56;19.17;;;9.40;;
37785;SDS011;23625;48.784;9.336;2023-02-22T09:29:24;20.48;;;9.25;;
37785;SDS011;23625;48.784;9.336;2023-02-22T09:31:52;23.13;;;9.40;;
37785;SDS011;23625;48.784;9.336;2023-02-22T09:34:20;19.42;;;9.60;;
37785;SDS011;23625;48.784;9.336;2023-02-22T09:36:52;22.20;;;9.90;;
37785;SDS011;23625;48.784;9.336;2023-02-22T09:39:18;27.00;;;12.85;;
37785;SDS011;23625;48.784;9.336;2023-02-22T09:42:01;23.98;;;10.85;;
37785;SDS011;23625;48.784;9.336;2023-02-22T09:47:18;34.47;;;12.30;;
37785;SDS011;23625;48.784;9.336;2023-02-22T09:49:57;25.35;;;12.93;;
37785;SDS011;23625;48.784;9.336;2023-02-22T09:55:44;21.85;;;10.27;;
37785;SDS011;23625;48.784;9.336;2023-02-22T10:08:29;25.88;;;11.63;;
37785;SDS011;23625;48.784;9.336;2023-02-22T10:13:53;25.30;;;10.73;;
37785;SDS011;23625;48.784;9.336;2023-02-22T10:19:10;25.90;;;10.85;;
37785;SDS011;23625;48.784;9.336;2023-02-22T10:30:27;19.98;;;9.52;;
37785;SDS011;23625;48.784;9.336;2023-02-22T10:35:44;20.08;;;9.18;;
37785;SDS011;23625;48.784;9.336;2023-02-22T10:38:18;17.50;;;8.93;;
37785;SDS011;23625;48.784;9.336;2023-02-22T10:43:19;16.98;;;8.55;;
37785;SDS011;23625;48.784;9.336;2023-02-22T10:45:45;19.65;;;8.20;;
37785;SDS011;23625;48.784;9.336;2023-02-22T10:48:15;22.17;;;8.18;;
37785;SDS011;23625;48.784;9.336;2023-02-22T10:50:43;18.92;;;8.20;;
37785;SDS011;23625;48.784;9.336;2023-02-22T10:53:10;17.70;;;7.85;;
37785;SDS011;23625;48.784;9.336;2023-02-22T10:56:25;18.55;;;8.75;;
37785;SDS011;23625;48.784;9.336;2023-02-22T10:58:52;16.75;;;7.97;;
37785;SDS011;23625;48.784;9.336;2023-02-22T11:06:28;18.13;;;7.78;;
37785;SDS011;23625;48.784;9.336;2023-02-22T11:09:02;17.77;;;7.68;;
37785;SDS011;23625;48.784;9.336;2023-02-22T11:11:40;19.65;;;8.00;;
37785;SDS011;23625;48.784;9.336;2023-02-22T11:14:08;20.42;;;7.47;;
37785;SDS011;23625;48.784;9.336;2023-02-22T11:16:39;17.13;;;7.45;;
37785;SDS011;23625;48.784;9.336;2023-02-22T11:19:26;15.55;;;8.43;;
37785;SDS011;23625;48.784;9.336;2023-02-22T11:22:39;28.50;;;9.13;;
37785;SDS011;23625;48.784;9.336;2023-02-22T11:24:50;18.98;;;7.57;;
37785;SDS011;23625;48.784;9.336;2023-02-22T11:27:25;23.98;;;8.68;;
37785;SDS011;23625;48.784;9.336;2023-02-22T11:32:46;19.08;;;8.55;;
37785;SDS011;23625;48.784;9.336;2023-02-22T11:37:53;18.60;;;9.20;;
37785;SDS011;23625;48.784;9.336;2023-02-22T11:40:33;14.95;;;8.63;;
37785;SDS011;23625;48.784;9.336;2023-02-22T11:43:12;19.23;;;9.65;;
37785;SDS011;23625;48.784;9.336;2023-02-22T11:45:57;20.48;;;8.90;;
37785;SDS011;23625;48.784;9.336;2023-02-22T11:48:28;21.17;;;9.95;;
37785;SDS011;23625;48.784;9.336;2023-02-22T11:51:02;22.73;;;9.48;;
37785;SDS011;23625;48.784;9.336;2023-02-22T11:53:37;17.63;;;9.13;;
37785;SDS011;23625;48.784;9.336;2023-02-22T11:56:16;22.48;;;10.05;;
37785;SDS011;23625;48.784;9.336;2023-02-22T11:58:52;23.70;;;11.23;;
37785;SDS011;23625;48.784;9.336;2023-02-22T12:16:05;19.98;;;10.38;;
37785;SDS011;23625;48.784;9.336;2023-02-22T12:21:26;21.75;;;10.38;;
37785;SDS011;23625;48.784;9.336;2023-02-22T12:29:00;25.85;;;11.63;;
37785;SDS011;23625;48.784;9.336;2023-02-22T12:34:22;18.98;;;9.40;;
37785;SDS011;23625;48.784;9.336;2023-02-22T12:39:36;23.90;;;10.38;;
37785;SDS011;23625;48.784;9.336;2023-02-22T12:44:54;26.00;;;10.05;;
37785;SDS011;23625;48.784;9.336;2023-02-22T12:47:28;23.83;;;9.90;;
37785;SDS011;23625;48.784;9.336;2023-02-22T12:50:02;21.90;;;10.50;;
37785;SDS011;23625;48.784;9.336;2023-02-22T12:52:52;26.60;;;11.00;;
37785;SDS011;23625;48.784;9.336;2023-02-22T12:55:37;19.13;;;9.85;;
37785;SDS011;23625;48.784;9.336;2023-02-22T12:59:02;28.52;;;9.32;;
37785;SDS011;23625;48.784;9.336;2023-02-22T13:01:14;18.20;;;8.88;;
37785;SDS011;23625;48.784;9.336;2023-02-22T13:03:44;20.23;;;9.77;;
37785;SDS011;23625;48.784;9.336;2023-02-22T13:14:43;17.83;;;8.88;;
37785;SDS011;23625;48.784;9.336;2023-02-22T13:20:17;18.00;;;9.95;;
37785;SDS011;23625;48.784;9.336;2023-02-22T13:30:51;21.10;;;9.45;;
37785;SDS011;23625;48.784;9.336;2023-02-22T13:36:09;19.70;;;8.65;;
37785;SDS011;23625;48.784;9.336;2023-02-22T13:42:02;20.42;;;9.52;;
37785;SDS011;23625;48.784;9.336;2023-02-22T13:47:23;23.92;;;8.52;;
37785;SDS011;23625;48.784;9.336;2023-02-22T13:50:40;16.77;;;8.25;;
37785;SDS011;23625;48.784;9.336;2023-02-22T13:53:16;18.63;;;9.00;;
37785;SDS011;23625;48.784;9.336;2023-02-22T13:55:47;17.88;;;9.23;;
37785;SDS011;23625;48.784;9.336;2023-02-22T13:58:17;21.67;;;9.93;;
37785;SDS011;23625;48.784;9.336;2023-02-22T14:00:47;27.17;;;10.95;;
37785;SDS011;23625;48.784;9.336;2023-02-22T14:10:43;21.42;;;10.35;;
37785;SDS011;23625;48.784;9.336;2023-02-22T14:13:20;22.38;;;10.43;;
37785;SDS011;23625;48.784;9.336;2023-02-22T14:18:45;27.58;;;10.18;;
37785;SDS011;23625;48.784;9.336;2023-02-22T14:21:16;22.60;;;10.30;;
37785;SDS011;23625;48.784;9.336;2023-02-22T14:23:54;24.20;;;11.50;;
37785;SDS011;23625;48.784;9.336;2023-02-22T14:28:57;27.45;;;10.75;;
37785;SDS011;23625;48.784;9.336;2023-02-22T14:31:27;19.13;;;10.80;;
37785;SDS011;23625;48.784;9.336;2023-02-22T14:36:25;27.98;;;11.57;;
37785;SDS011;23625;48.784;9.336;2023-02-22T14:41:33;27.40;;;11.07;;
37785;SDS011;23625;48.784;9.336;2023-02-22T14:44:01;21.88;;;10.70;;
37785;SDS011;23625;48.784;9.336;2023-02-22T14:46:28;20.33;;;10.82;;
37785;SDS011;23625;48.784;9.336;2023-02-22T14:48:59;24.33;;;11.30;;
37785;SDS011;23625;48.784;9.336;2023-02-22T14:51:42;24.00;;;11.77;;
37785;SDS011;23625;48.784;9.336;2023-02-22T14:54:18;20.38;;;11.45;;
37785;SDS011;23625;48.784;9.336;2023-02-22T14:56:57;26.27;;;11.20;;
37785;SDS011;23625;48.784;9.336;2023-02-22T14:59:25;24.40;;;11.20;;
37785;SDS011;23625;48.784;9.336;2023-02-22T15:02:10;24.70;;;11.77;;
37785;SDS011;23625;48.784;9.336;2023-02-22T15:04:37;28.30;;;11.82;;
37785;SDS011;23625;48.784;9.336;2023-02-22T15:07:19;28.83;;;12.75;;
37785;SDS011;23625;48.784;9.336;2023-02-22T15:09:51;21.85;;;10.68;;
37785;SDS011;23625;48.784;9.336;2023-02-22T15:12:25;29.25;;;12.73;;
37785;SDS011;23625;48.784;9.336;2023-02-22T15:17:46;27.70;;;11.48;;
37785;SDS011;23625;48.784;9.336;2023-02-22T15:20:16;29.55;;;12.15;;
37785;SDS011;23625;48.784;9.336;2023-02-22T15:22:44;21.30;;;11.60;;
37785;SDS011;23625;48.784;9.336;2023-02-22T15:25:11;23.13;;;10.82;;
37785;SDS011;23625;48.784;9.336;2023-02-22T15:27:38;26.02;;;9.95;;
37785;SDS011;23625;48.784;9.336;2023-02-22T15:30:23;23.25;;;10.75;;
37785;SDS011;23625;48.784;9.336;2023-02-22T15:32:52;21.30;;;10.63;;
37785;SDS011;23625;48.784;9.336;2023-02-22T15:35:20;26.02;;;12.10;;
37785;SDS011;23625;48.784;9.336;2023-02-22T15:38:01;22.42;;;11.38;;
37785;SDS011;23625;48.784;9.336;2023-02-22T15:40:37;23.03;;;10.90;;
37785;SDS011;23625;48.784;9.336;2023-02-22T15:43:13;28.10;;;12.70;;
37785;SDS011;23625;48.784;9.336;2023-02-22T15:45:52;27.75;;;12.02;;
37785;SDS011;23625;48.784;9.336;2023-02-22T15:48:19;24.50;;;11.10;;
37785;SDS011;23625;48.784;9.336;2023-02-22T15:50:58;29.08;;;12.57;;
37785;SDS011;23625;48.784;9.336;2023-02-22T15:53:35;25.38;;;11.90;;
37785;SDS011;23625;48.784;9.336;2023-02-22T15:56:23;30.55;;;12.48;;
37785;SDS011;23625;48.784;9.336;2023-02-22T15:58:58;23.83;;;12.30;;
37785;SDS011;23625;48.784;9.336;2023-02-22T16:01:27;122.47;;;60.15;;
37785;SDS011;23625;48.784;9.336;2023-02-22T16:04:00;80.07;;;32.50;;
37785;SDS011;23625;48.784;9.336;2023-02-22T16:06:29;54.58;;;29.52;;
37785;SDS011;23625;48.784;9.336;2023-02-22T16:09:10;48.27;;;16.80;;
37785;SDS011;23625;48.784;9.336;2023-02-22T16:11:39;27.02;;;12.27;;
37785;SDS011;23625;48.784;9.336;2023-02-22T16:22:42;27.20;;;12.48;;
37785;SDS011;23625;48.784;9.336;2023-02-22T16:32:41;25.92;;;13.32;;
37785;SDS011;23625;48.784;9.336;2023-02-22T16:35:07;25.20;;;12.75;;
37785;SDS011;23625;48.784;9.336;2023-02-22T16:37:41;30.60;;;12.85;;
37785;SDS011;23625;48.784;9.336;2023-02-22T16:40:21;26.80;;;11.63;;
37785;SDS011;23625;48.784;9.336;2023-02-22T16:42:56;25.88;;;12.07;;
37785;SDS011;23625;48.784;9.336;2023-02-22T16:45:23;37.75;;;12.63;;
37785;SDS011;23625;48.784;9.336;2023-02-22T16:47:49;29.67;;;12.07;;
37785;SDS011;23625;48.784;9.336;2023-02-22T16:50:17;30.42;;;12.35;;
37785;SDS011;23625;48.784;9.336;2023-02-22T16:52:43;29.42;;;12.48;;
37785;SDS011;23625;48.784;9.336;2023-02-22T16:55:11;36.75;;;14.30;;
37785;SDS011;23625;48.784;9.336;2023-02-22T16:57:38;48.42;;;19.55;;
37785;SDS011;23625;48.784;9.336;2023-02-22T17:00:07;52.67;;;22.83;;
37785;SDS011;23625;48.784;9.336;2023-02-22T17:02:39;31.52;;;12.63;;
37785;SDS011;23625;48.784;9.336;2023-02-22T17:05:05;30.15;;;13.60;;
37785;SDS011;23625;48.784;9.336;2023-02-22T17:07:32;45.38;;;19.05;;
37785;SDS011;23625;48.784;9.336;2023-02-22T17:09:58;59.53;;;25.38;;
37785;SDS011;23625;48.784;9.336;2023-02-22T17:12:24;32.45;;;13.63;;
37785;SDS011;23625;48.784;9.336;2023-02-22T17:14:51;28.13;;;12.40;;
37785;SDS011;23625;48.784;9.336;2023-02-22T17:17:17;28.63;;;11.00;;
37785;SDS011;23625;48.784;9.336;2023-02-22T17:19:42;23.48;;;10.77;;
37785;SDS011;23625;48.784;9.336;2023-02-22T17:22:18;29.33;;;10.90;;
37785;SDS011;23625;48.784;9.336;2023-02-22T17:24:45;22.27;;;10.10;;
37785;SDS011;23625;48.784;9.336;2023-02-22T17:27:12;21.35;;;10.55;;
37785;SDS011;23625;48.784;9.336;2023-02-22T17:29:38;28.42;;;10.18;;
37785;SDS011;23625;48.784;9.336;2023-02-22T17:32:05;27.13;;;11.23;;
37785;SDS011;23625;48.784;9.336;2023-02-22T17:34:31;23.15;;;11.35;;
37785;SDS011;23625;48.784;9.336;2023-02-22T17:36:56;28.00;;;10.20;;